sensor_id;sensor_type;location;lat;lon;timestamp;temperature;humidity
41926;DHT22;27615;51.826;5.692;2022-08-03T00:01:32;21.90;85.10
41926;DHT22;27615;51.826;5.692;2022-08-03T00:03:57;21.90;85.30
41926;DHT22;27615;51.826;5.692;2022-08-03T00:06:23;21.90;85.50
41926;DHT22;27615;51.826;5.692;2022-08-03T00:08:49;21.80;85.70
41926;DHT22;27615;51.826;5.692;2022-08-03T00:11:14;21.80;86.00
41926;DHT22;27615;51.826;5.692;2022-08-03T00:13:40;21.70;86.30
41926;DHT22;27615;51.826;5.692;2022-08-03T00:16:05;21.70;86.50
41926;DHT22;27615;51.826;5.692;2022-08-03T00:18:31;21.60;86.70
41926;DHT22;27615;51.826;5.692;2022-08-03T00:21:05;21.50;86.90
41926;DHT22;27615;51.826;5.692;2022-08-03T00:23:30;21.50;87.00
41926;DHT22;27615;51.826;5.692;2022-08-03T00:25:56;21.40;87.40
41926;DHT22;27615;51.826;5.692;2022-08-03T00:28:22;21.40;87.60
41926;DHT22;27615;51.826;5.692;2022-08-03T00:30:47;21.40;87.90
41926;DHT22;27615;51.826;5.692;2022-08-03T00:33:13;21.40;88.20
41926;DHT22;27615;51.826;5.692;2022-08-03T00:35:38;21.30;88.60
41926;DHT22;27615;51.826;5.692;2022-08-03T00:38:04;21.30;89.10
41926;DHT22;27615;51.826;5.692;2022-08-03T00:40:30;21.20;89.40
41926;DHT22;27615;51.826;5.692;2022-08-03T00:42:59;21.20;89.70
41926;DHT22;27615;51.826;5.692;2022-08-03T00:45:26;21.10;90.30
41926;DHT22;27615;51.826;5.692;2022-08-03T00:47:52;20.90;90.60
41926;DHT22;27615;51.826;5.692;2022-08-03T00:50:19;20.80;91.00
41926;DHT22;27615;51.826;5.692;2022-08-03T00:52:45;20.90;91.00
41926;DHT22;27615;51.826;5.692;2022-08-03T00:55:11;20.90;91.00
41926;DHT22;27615;51.826;5.692;2022-08-03T00:57:38;20.90;91.00
41926;DHT22;27615;51.826;5.692;2022-08-03T01:00:05;20.80;91.10
41926;DHT22;27615;51.826;5.692;2022-08-03T01:02:32;20.80;91.50
41926;DHT22;27615;51.826;5.692;2022-08-03T01:04:57;20.50;92.10
41926;DHT22;27615;51.826;5.692;2022-08-03T01:12:41;20.20;93.50
41926;DHT22;27615;51.826;5.692;2022-08-03T01:18:05;20.10;94.90
41926;DHT22;27615;51.826;5.692;2022-08-03T01:20:33;20.00;95.70
41926;DHT22;27615;51.826;5.692;2022-08-03T01:23:09;19.90;96.00
41926;DHT22;27615;51.826;5.692;2022-08-03T01:25:46;19.90;96.20
41926;DHT22;27615;51.826;5.692;2022-08-03T01:31:08;19.80;96.90
41926;DHT22;27615;51.826;5.692;2022-08-03T01:33:42;19.80;97.30
41926;DHT22;27615;51.826;5.692;2022-08-03T01:36:18;19.70;97.40
41926;DHT22;27615;51.826;5.692;2022-08-03T01:38:47;19.70;97.80
41926;DHT22;27615;51.826;5.692;2022-08-03T01:41:19;19.60;98.10
41926;DHT22;27615;51.826;5.692;2022-08-03T01:43:47;19.60;98.60
41926;DHT22;27615;51.826;5.692;2022-08-03T01:46:15;19.50;98.80
41926;DHT22;27615;51.826;5.692;2022-08-03T01:48:43;19.50;99.00
41926;DHT22;27615;51.826;5.692;2022-08-03T01:51:11;19.40;99.50
41926;DHT22;27615;51.826;5.692;2022-08-03T01:53:39;19.40;99.70
41926;DHT22;27615;51.826;5.692;2022-08-03T01:56:07;19.40;99.90
41926;DHT22;27615;51.826;5.692;2022-08-03T01:58:35;19.40;99.90
41926;DHT22;27615;51.826;5.692;2022-08-03T02:01:03;19.40;99.90
41926;DHT22;27615;51.826;5.692;2022-08-03T02:03:35;19.40;99.90
41926;DHT22;27615;51.826;5.692;2022-08-03T02:06:12;19.30;99.90
41926;DHT22;27615;51.826;5.692;2022-08-03T02:08:39;19.40;99.90
41926;DHT22;27615;51.826;5.692;2022-08-03T02:11:06;19.50;99.90
41926;DHT22;27615;51.826;5.692;2022-08-03T02:13:33;19.50;99.90
41926;DHT22;27615;51.826;5.692;2022-08-03T02:16:01;19.60;99.80
41926;DHT22;27615;51.826;5.692;2022-08-03T02:18:28;19.70;99.50
41926;DHT22;27615;51.826;5.692;2022-08-03T02:20:55;19.70;99.30
41926;DHT22;27615;51.826;5.692;2022-08-03T02:23:21;19.70;99.30
41926;DHT22;27615;51.826;5.692;2022-08-03T02:25:54;19.70;99.20
41926;DHT22;27615;51.826;5.692;2022-08-03T02:28:28;19.70;99.30
41926;DHT22;27615;51.826;5.692;2022-08-03T02:30:55;19.70;99.30
41926;DHT22;27615;51.826;5.692;2022-08-03T02:33:36;19.60;99.40
41926;DHT22;27615;51.826;5.692;2022-08-03T02:36:02;19.70;99.30
41926;DHT22;27615;51.826;5.692;2022-08-03T02:38:32;19.60;99.30
41926;DHT22;27615;51.826;5.692;2022-08-03T02:40:58;19.60;99.50
41926;DHT22;27615;51.826;5.692;2022-08-03T02:43:25;19.50;99.40
41926;DHT22;27615;51.826;5.692;2022-08-03T02:45:52;19.50;99.50
41926;DHT22;27615;51.826;5.692;2022-08-03T02:48:21;19.60;99.50
41926;DHT22;27615;51.826;5.692;2022-08-03T02:50:49;19.50;99.70
41926;DHT22;27615;51.826;5.692;2022-08-03T02:53:16;19.50;99.90
41926;DHT22;27615;51.826;5.692;2022-08-03T02:55:43;19.40;99.90
41926;DHT22;27615;51.826;5.692;2022-08-03T02:58:13;19.30;99.90
41926;DHT22;27615;51.826;5.692;2022-08-03T03:00:39;19.30;99.90
41926;DHT22;27615;51.826;5.692;2022-08-03T03:03:05;19.30;99.90
41926;DHT22;27615;51.826;5.692;2022-08-03T03:05:33;19.20;99.90
41926;DHT22;27615;51.826;5.692;2022-08-03T03:07:59;19.30;99.90
41926;DHT22;27615;51.826;5.692;2022-08-03T03:10:25;19.30;99.90
41926;DHT22;27615;51.826;5.692;2022-08-03T03:12:54;19.30;99.90
41926;DHT22;27615;51.826;5.692;2022-08-03T03:15:21;19.30;99.90
41926;DHT22;27615;51.826;5.692;2022-08-03T03:17:48;19.20;99.90
41926;DHT22;27615;51.826;5.692;2022-08-03T03:20:15;19.10;99.90
41926;DHT22;27615;51.826;5.692;2022-08-03T03:22:42;19.10;99.90
41926;DHT22;27615;51.826;5.692;2022-08-03T03:25:09;19.10;99.90
41926;DHT22;27615;51.826;5.692;2022-08-03T03:27:35;19.00;99.90
41926;DHT22;27615;51.826;5.692;2022-08-03T03:30:02;19.00;99.90
41926;DHT22;27615;51.826;5.692;2022-08-03T03:32:28;19.00;99.90
41926;DHT22;27615;51.826;5.692;2022-08-03T03:34:55;19.00;99.90
41926;DHT22;27615;51.826;5.692;2022-08-03T03:37:21;19.00;99.90
41926;DHT22;27615;51.826;5.692;2022-08-03T03:39:46;18.90;99.90
41926;DHT22;27615;51.826;5.692;2022-08-03T03:42:12;18.90;99.90
41926;DHT22;27615;51.826;5.692;2022-08-03T03:44:38;18.80;99.90
41926;DHT22;27615;51.826;5.692;2022-08-03T03:47:04;18.80;99.90
41926;DHT22;27615;51.826;5.692;2022-08-03T03:49:30;18.80;99.90
41926;DHT22;27615;51.826;5.692;2022-08-03T03:51:56;18.80;99.90
41926;DHT22;27615;51.826;5.692;2022-08-03T03:54:22;18.80;99.90
41926;DHT22;27615;51.826;5.692;2022-08-03T03:56:48;18.80;99.90
41926;DHT22;27615;51.826;5.692;2022-08-03T03:59:13;18.80;99.90
41926;DHT22;27615;51.826;5.692;2022-08-03T04:01:39;18.80;99.90
41926;DHT22;27615;51.826;5.692;2022-08-03T04:04:04;18.80;99.90
41926;DHT22;27615;51.826;5.692;2022-08-03T04:06:49;18.90;99.90
41926;DHT22;27615;51.826;5.692;2022-08-03T04:09:35;18.90;99.90
41926;DHT22;27615;51.826;5.692;2022-08-03T04:12:22;18.90;99.90
41926;DHT22;27615;51.826;5.692;2022-08-03T04:14:50;18.90;99.90
41926;DHT22;27615;51.826;5.692;2022-08-03T04:17:17;19.00;99.90
41926;DHT22;27615;51.826;5.692;2022-08-03T04:19:48;18.90;99.90
41926;DHT22;27615;51.826;5.692;2022-08-03T04:22:26;18.90;99.90
41926;DHT22;27615;51.826;5.692;2022-08-03T04:25:00;18.90;99.90
41926;DHT22;27615;51.826;5.692;2022-08-03T04:27:32;18.90;99.90
41926;DHT22;27615;51.826;5.692;2022-08-03T04:30:02;18.80;99.90
41926;DHT22;27615;51.826;5.692;2022-08-03T04:32:29;18.80;99.90
41926;DHT22;27615;51.826;5.692;2022-08-03T04:34:55;18.80;99.90
41926;DHT22;27615;51.826;5.692;2022-08-03T04:37:29;18.80;99.90
41926;DHT22;27615;51.826;5.692;2022-08-03T04:40:58;18.80;99.90
41926;DHT22;27615;51.826;5.692;2022-08-03T04:43:24;18.80;99.90
41926;DHT22;27615;51.826;5.692;2022-08-03T04:45:51;18.80;99.90
41926;DHT22;27615;51.826;5.692;2022-08-03T04:48:18;18.80;99.90
41926;DHT22;27615;51.826;5.692;2022-08-03T04:50:45;18.80;99.90
41926;DHT22;27615;51.826;5.692;2022-08-03T04:53:11;18.80;99.90
41926;DHT22;27615;51.826;5.692;2022-08-03T04:55:37;18.80;99.90
41926;DHT22;27615;51.826;5.692;2022-08-03T04:58:03;18.80;99.90
41926;DHT22;27615;51.826;5.692;2022-08-03T05:00:29;18.90;99.90
41926;DHT22;27615;51.826;5.692;2022-08-03T05:02:55;18.90;99.90
41926;DHT22;27615;51.826;5.692;2022-08-03T05:05:21;19.00;99.90
41926;DHT22;27615;51.826;5.692;2022-08-03T05:07:47;19.00;99.90
41926;DHT22;27615;51.826;5.692;2022-08-03T05:10:13;19.00;99.90
41926;DHT22;27615;51.826;5.692;2022-08-03T05:12:39;19.10;99.90
41926;DHT22;27615;51.826;5.692;2022-08-03T05:15:06;19.20;99.90
41926;DHT22;27615;51.826;5.692;2022-08-03T05:17:31;19.20;99.90
41926;DHT22;27615;51.826;5.692;2022-08-03T05:19:58;19.30;99.90
41926;DHT22;27615;51.826;5.692;2022-08-03T05:22:24;19.30;99.90
41926;DHT22;27615;51.826;5.692;2022-08-03T05:28:01;19.40;99.90
41926;DHT22;27615;51.826;5.692;2022-08-03T05:30:26;19.40;99.90
41926;DHT22;27615;51.826;5.692;2022-08-03T05:32:52;19.50;99.90
41926;DHT22;27615;51.826;5.692;2022-08-03T05:35:18;19.50;99.90
41926;DHT22;27615;51.826;5.692;2022-08-03T05:37:43;19.60;99.90
41926;DHT22;27615;51.826;5.692;2022-08-03T05:40:09;19.60;99.90
41926;DHT22;27615;51.826;5.692;2022-08-03T05:42:38;19.70;99.90
41926;DHT22;27615;51.826;5.692;2022-08-03T05:45:04;19.80;99.90
41926;DHT22;27615;51.826;5.692;2022-08-03T05:47:42;19.80;99.90
41926;DHT22;27615;51.826;5.692;2022-08-03T05:50:09;19.90;99.90
41926;DHT22;27615;51.826;5.692;2022-08-03T05:52:35;19.90;99.90
41926;DHT22;27615;51.826;5.692;2022-08-03T05:55:00;19.90;99.90
41926;DHT22;27615;51.826;5.692;2022-08-03T05:57:26;20.00;99.90
41926;DHT22;27615;51.826;5.692;2022-08-03T05:59:51;20.10;99.90
41926;DHT22;27615;51.826;5.692;2022-08-03T06:02:17;20.10;99.90
41926;DHT22;27615;51.826;5.692;2022-08-03T06:04:42;20.20;99.90
41926;DHT22;27615;51.826;5.692;2022-08-03T06:07:08;20.20;99.90
41926;DHT22;27615;51.826;5.692;2022-08-03T06:09:33;20.30;99.90
41926;DHT22;27615;51.826;5.692;2022-08-03T06:11:59;20.30;99.90
41926;DHT22;27615;51.826;5.692;2022-08-03T06:14:24;20.40;99.90
41926;DHT22;27615;51.826;5.692;2022-08-03T06:16:50;20.40;99.90
41926;DHT22;27615;51.826;5.692;2022-08-03T06:19:15;20.50;99.90
41926;DHT22;27615;51.826;5.692;2022-08-03T06:21:41;20.50;99.90
41926;DHT22;27615;51.826;5.692;2022-08-03T06:24:06;20.60;99.90
41926;DHT22;27615;51.826;5.692;2022-08-03T06:26:32;20.60;99.90
41926;DHT22;27615;51.826;5.692;2022-08-03T06:28:58;20.70;99.90
41926;DHT22;27615;51.826;5.692;2022-08-03T06:31:25;20.70;99.80
41926;DHT22;27615;51.826;5.692;2022-08-03T06:33:52;20.80;99.60
41926;DHT22;27615;51.826;5.692;2022-08-03T06:36:17;20.80;99.30
41926;DHT22;27615;51.826;5.692;2022-08-03T06:38:43;20.90;99.20
41926;DHT22;27615;51.826;5.692;2022-08-03T06:41:08;21.00;99.10
41926;DHT22;27615;51.826;5.692;2022-08-03T06:43:34;21.00;98.90
41926;DHT22;27615;51.826;5.692;2022-08-03T06:46:03;21.10;98.70
41926;DHT22;27615;51.826;5.692;2022-08-03T06:48:30;21.10;98.40
41926;DHT22;27615;51.826;5.692;2022-08-03T06:50:55;21.20;98.30
41926;DHT22;27615;51.826;5.692;2022-08-03T06:53:21;21.30;98.10
41926;DHT22;27615;51.826;5.692;2022-08-03T06:55:47;21.30;97.90
41926;DHT22;27615;51.826;5.692;2022-08-03T06:58:12;21.40;97.70
41926;DHT22;27615;51.826;5.692;2022-08-03T07:00:38;21.40;97.40
41926;DHT22;27615;51.826;5.692;2022-08-03T07:03:03;21.50;97.20
41926;DHT22;27615;51.826;5.692;2022-08-03T07:05:29;21.50;97.00
41926;DHT22;27615;51.826;5.692;2022-08-03T07:07:57;21.60;96.70
41926;DHT22;27615;51.826;5.692;2022-08-03T07:10:23;21.60;96.50
41926;DHT22;27615;51.826;5.692;2022-08-03T07:12:49;21.60;96.30
41926;DHT22;27615;51.826;5.692;2022-08-03T07:15:14;21.70;96.20
41926;DHT22;27615;51.826;5.692;2022-08-03T07:17:40;21.70;96.00
41926;DHT22;27615;51.826;5.692;2022-08-03T07:20:06;21.80;95.90
41926;DHT22;27615;51.826;5.692;2022-08-03T07:22:33;21.90;95.80
41926;DHT22;27615;51.826;5.692;2022-08-03T07:24:59;21.90;95.70
41926;DHT22;27615;51.826;5.692;2022-08-03T07:27:25;22.00;95.50
41926;DHT22;27615;51.826;5.692;2022-08-03T07:29:55;22.00;95.30
41926;DHT22;27615;51.826;5.692;2022-08-03T07:32:32;22.10;95.20
41926;DHT22;27615;51.826;5.692;2022-08-03T07:35:09;22.10;94.90
41926;DHT22;27615;51.826;5.692;2022-08-03T07:37:35;22.10;95.00
41926;DHT22;27615;51.826;5.692;2022-08-03T07:40:02;22.20;95.00
41926;DHT22;27615;51.826;5.692;2022-08-03T07:42:31;22.30;94.80
41926;DHT22;27615;51.826;5.692;2022-08-03T07:44:58;22.40;94.50
41926;DHT22;27615;51.826;5.692;2022-08-03T07:47:26;22.50;94.40
41926;DHT22;27615;51.826;5.692;2022-08-03T07:49:53;22.60;94.10
41926;DHT22;27615;51.826;5.692;2022-08-03T07:52:19;22.60;93.90
41926;DHT22;27615;51.826;5.692;2022-08-03T07:55:05;22.70;93.70
41926;DHT22;27615;51.826;5.692;2022-08-03T07:57:31;22.70;93.60
41926;DHT22;27615;51.826;5.692;2022-08-03T07:59:57;22.80;93.30
41926;DHT22;27615;51.826;5.692;2022-08-03T08:02:23;22.90;93.00
41926;DHT22;27615;51.826;5.692;2022-08-03T08:04:48;23.00;92.90
41926;DHT22;27615;51.826;5.692;2022-08-03T08:07:14;23.00;92.80
41926;DHT22;27615;51.826;5.692;2022-08-03T08:09:42;23.10;92.60
41926;DHT22;27615;51.826;5.692;2022-08-03T08:12:07;23.10;92.40
41926;DHT22;27615;51.826;5.692;2022-08-03T08:14:34;23.20;92.40
41926;DHT22;27615;51.826;5.692;2022-08-03T08:17:00;23.30;92.10
41926;DHT22;27615;51.826;5.692;2022-08-03T08:19:31;23.40;91.90
41926;DHT22;27615;51.826;5.692;2022-08-03T08:21:59;23.50;91.70
41926;DHT22;27615;51.826;5.692;2022-08-03T08:24:25;23.50;91.60
41926;DHT22;27615;51.826;5.692;2022-08-03T08:26:50;23.60;91.30
41926;DHT22;27615;51.826;5.692;2022-08-03T08:29:16;23.60;91.10
41926;DHT22;27615;51.826;5.692;2022-08-03T08:31:41;23.70;90.90
41926;DHT22;27615;51.826;5.692;2022-08-03T08:34:07;23.80;90.60
41926;DHT22;27615;51.826;5.692;2022-08-03T08:36:35;23.80;90.50
41926;DHT22;27615;51.826;5.692;2022-08-03T08:39:03;23.90;90.30
41926;DHT22;27615;51.826;5.692;2022-08-03T08:41:29;23.90;90.20
41926;DHT22;27615;51.826;5.692;2022-08-03T08:43:58;24.00;90.20
41926;DHT22;27615;51.826;5.692;2022-08-03T08:46:23;24.10;89.90
41926;DHT22;27615;51.826;5.692;2022-08-03T08:48:50;24.10;89.40
41926;DHT22;27615;51.826;5.692;2022-08-03T08:51:19;24.20;88.80
41926;DHT22;27615;51.826;5.692;2022-08-03T08:53:48;24.30;88.60
41926;DHT22;27615;51.826;5.692;2022-08-03T08:56:14;24.30;88.10
41926;DHT22;27615;51.826;5.692;2022-08-03T08:58:49;24.40;87.60
41926;DHT22;27615;51.826;5.692;2022-08-03T09:01:19;24.50;87.30
41926;DHT22;27615;51.826;5.692;2022-08-03T09:03:50;24.50;87.30
41926;DHT22;27615;51.826;5.692;2022-08-03T09:06:19;24.50;87.30
41926;DHT22;27615;51.826;5.692;2022-08-03T09:08:44;24.60;85.80
41926;DHT22;27615;51.826;5.692;2022-08-03T09:11:10;24.70;85.10
41926;DHT22;27615;51.826;5.692;2022-08-03T09:13:36;24.80;84.70
41926;DHT22;27615;51.826;5.692;2022-08-03T09:16:19;24.80;84.60
41926;DHT22;27615;51.826;5.692;2022-08-03T09:18:49;24.90;83.70
41926;DHT22;27615;51.826;5.692;2022-08-03T09:21:20;25.00;83.70
41926;DHT22;27615;51.826;5.692;2022-08-03T09:23:51;25.10;83.80
41926;DHT22;27615;51.826;5.692;2022-08-03T09:26:39;25.10;83.10
41926;DHT22;27615;51.826;5.692;2022-08-03T09:29:14;25.20;82.30
41926;DHT22;27615;51.826;5.692;2022-08-03T09:31:45;25.30;82.50
41926;DHT22;27615;51.826;5.692;2022-08-03T09:34:12;25.40;82.60
41926;DHT22;27615;51.826;5.692;2022-08-03T09:36:48;25.50;82.50
41926;DHT22;27615;51.826;5.692;2022-08-03T09:39:16;25.60;81.70
41926;DHT22;27615;51.826;5.692;2022-08-03T09:42:16;25.60;80.80
41926;DHT22;27615;51.826;5.692;2022-08-03T09:44:50;25.70;80.40
41926;DHT22;27615;51.826;5.692;2022-08-03T09:47:28;25.70;80.50
41926;DHT22;27615;51.826;5.692;2022-08-03T09:49:58;25.80;79.90
41926;DHT22;27615;51.826;5.692;2022-08-03T09:52:31;25.90;79.60
41926;DHT22;27615;51.826;5.692;2022-08-03T09:54:58;26.00;78.80
41926;DHT22;27615;51.826;5.692;2022-08-03T09:57:26;26.10;78.70
41926;DHT22;27615;51.826;5.692;2022-08-03T09:59:53;26.20;78.10
41926;DHT22;27615;51.826;5.692;2022-08-03T10:02:26;26.20;77.70
41926;DHT22;27615;51.826;5.692;2022-08-03T10:04:53;26.30;77.80
41926;DHT22;27615;51.826;5.692;2022-08-03T10:07:23;26.30;77.80
41926;DHT22;27615;51.826;5.692;2022-08-03T10:10:07;26.40;77.20
41926;DHT22;27615;51.826;5.692;2022-08-03T10:12:34;26.50;77.20
41926;DHT22;27615;51.826;5.692;2022-08-03T10:15:00;26.60;77.00
41926;DHT22;27615;51.826;5.692;2022-08-03T10:17:25;26.70;76.10
41926;DHT22;27615;51.826;5.692;2022-08-03T10:19:51;26.70;74.90
41926;DHT22;27615;51.826;5.692;2022-08-03T10:22:25;26.80;74.50
41926;DHT22;27615;51.826;5.692;2022-08-03T10:25:07;26.90;73.20
41926;DHT22;27615;51.826;5.692;2022-08-03T10:27:36;27.00;72.50
41926;DHT22;27615;51.826;5.692;2022-08-03T10:30:04;27.10;72.20
41926;DHT22;27615;51.826;5.692;2022-08-03T10:32:33;27.20;72.00
41926;DHT22;27615;51.826;5.692;2022-08-03T10:35:05;27.30;71.80
41926;DHT22;27615;51.826;5.692;2022-08-03T10:37:33;27.40;69.80
41926;DHT22;27615;51.826;5.692;2022-08-03T10:40:01;27.50;69.60
41926;DHT22;27615;51.826;5.692;2022-08-03T10:42:27;27.60;69.10
41926;DHT22;27615;51.826;5.692;2022-08-03T10:45:06;27.70;69.30
41926;DHT22;27615;51.826;5.692;2022-08-03T10:47:47;27.80;68.90
41926;DHT22;27615;51.826;5.692;2022-08-03T10:50:36;27.80;68.60
41926;DHT22;27615;51.826;5.692;2022-08-03T10:53:40;27.90;67.10
41926;DHT22;27615;51.826;5.692;2022-08-03T10:59:16;28.10;66.70
41926;DHT22;27615;51.826;5.692;2022-08-03T11:01:52;28.10;65.70
41926;DHT22;27615;51.826;5.692;2022-08-03T11:04:19;28.20;65.20
41926;DHT22;27615;51.826;5.692;2022-08-03T11:06:46;28.30;64.60
41926;DHT22;27615;51.826;5.692;2022-08-03T11:09:13;28.40;64.30
41926;DHT22;27615;51.826;5.692;2022-08-03T11:11:44;28.50;63.80
41926;DHT22;27615;51.826;5.692;2022-08-03T11:14:18;28.60;62.10
41926;DHT22;27615;51.826;5.692;2022-08-03T11:16:47;28.70;61.90
41926;DHT22;27615;51.826;5.692;2022-08-03T11:19:18;28.70;61.70
41926;DHT22;27615;51.826;5.692;2022-08-03T11:27:26;29.00;60.40
41926;DHT22;27615;51.826;5.692;2022-08-03T11:38:18;29.70;58.80
41926;DHT22;27615;51.826;5.692;2022-08-03T11:40:50;30.00;59.10
41926;DHT22;27615;51.826;5.692;2022-08-03T11:43:45;30.10;58.50
41926;DHT22;27615;51.826;5.692;2022-08-03T11:46:36;30.40;57.80
41926;DHT22;27615;51.826;5.692;2022-08-03T11:49:05;30.60;57.80
41926;DHT22;27615;51.826;5.692;2022-08-03T11:51:41;30.80;57.70
41926;DHT22;27615;51.826;5.692;2022-08-03T11:54:33;30.90;57.40
41926;DHT22;27615;51.826;5.692;2022-08-03T11:56:58;31.10;56.50
41926;DHT22;27615;51.826;5.692;2022-08-03T11:59:34;31.20;56.50
41926;DHT22;27615;51.826;5.692;2022-08-03T12:02:11;31.40;56.20
41926;DHT22;27615;51.826;5.692;2022-08-03T12:04:57;31.50;55.40
41926;DHT22;27615;51.826;5.692;2022-08-03T12:07:24;31.80;55.30
41926;DHT22;27615;51.826;5.692;2022-08-03T12:10:21;31.90;54.70
41926;DHT22;27615;51.826;5.692;2022-08-03T12:13:13;31.90;53.40
41926;DHT22;27615;51.826;5.692;2022-08-03T12:15:40;32.00;54.20
41926;DHT22;27615;51.826;5.692;2022-08-03T12:18:15;32.20;53.90
41926;DHT22;27615;51.826;5.692;2022-08-03T12:20:41;32.50;53.90
41926;DHT22;27615;51.826;5.692;2022-08-03T12:23:08;32.70;53.10
41926;DHT22;27615;51.826;5.692;2022-08-03T12:25:35;32.70;51.70
41926;DHT22;27615;51.826;5.692;2022-08-03T12:31:14;32.80;51.40
41926;DHT22;27615;51.826;5.692;2022-08-03T12:34:03;33.00;51.20
41926;DHT22;27615;51.826;5.692;2022-08-03T12:36:32;33.10;50.10
41926;DHT22;27615;51.826;5.692;2022-08-03T12:39:04;33.00;50.20
41926;DHT22;27615;51.826;5.692;2022-08-03T12:41:32;33.10;50.00
41926;DHT22;27615;51.826;5.692;2022-08-03T12:43:58;33.20;50.40
41926;DHT22;27615;51.826;5.692;2022-08-03T12:46:30;33.30;50.50
41926;DHT22;27615;51.826;5.692;2022-08-03T12:49:07;33.60;50.70
41926;DHT22;27615;51.826;5.692;2022-08-03T12:54:03;34.00;50.60
41926;DHT22;27615;51.826;5.692;2022-08-03T12:56:29;34.20;50.50
41926;DHT22;27615;51.826;5.692;2022-08-03T12:58:55;34.30;49.60
41926;DHT22;27615;51.826;5.692;2022-08-03T13:01:21;34.50;49.80
41926;DHT22;27615;51.826;5.692;2022-08-03T13:03:50;34.60;49.70
41926;DHT22;27615;51.826;5.692;2022-08-03T13:06:23;34.70;49.60
41926;DHT22;27615;51.826;5.692;2022-08-03T13:09:05;34.80;49.30
41926;DHT22;27615;51.826;5.692;2022-08-03T13:11:31;34.80;48.80
41926;DHT22;27615;51.826;5.692;2022-08-03T13:13:57;34.90;49.00
41926;DHT22;27615;51.826;5.692;2022-08-03T13:16:23;35.00;48.70
41926;DHT22;27615;51.826;5.692;2022-08-03T13:18:49;34.90;48.50
41926;DHT22;27615;51.826;5.692;2022-08-03T13:21:16;35.00;49.00
41926;DHT22;27615;51.826;5.692;2022-08-03T13:23:42;35.10;48.90
41926;DHT22;27615;51.826;5.692;2022-08-03T13:26:09;35.30;49.30
41926;DHT22;27615;51.826;5.692;2022-08-03T13:28:49;35.50;49.20
41926;DHT22;27615;51.826;5.692;2022-08-03T13:34:38;35.80;48.90
41926;DHT22;27615;51.826;5.692;2022-08-03T13:44:03;36.10;48.80
41926;DHT22;27615;51.826;5.692;2022-08-03T13:46:29;36.10;48.40
41926;DHT22;27615;51.826;5.692;2022-08-03T13:48:54;36.30;48.20
41926;DHT22;27615;51.826;5.692;2022-08-03T13:51:26;36.40;47.80
41926;DHT22;27615;51.826;5.692;2022-08-03T13:54:49;36.40;47.50
41926;DHT22;27615;51.826;5.692;2022-08-03T13:57:14;36.50;47.80
41926;DHT22;27615;51.826;5.692;2022-08-03T13:59:39;36.50;47.50
41926;DHT22;27615;51.826;5.692;2022-08-03T14:02:05;36.60;47.50
41926;DHT22;27615;51.826;5.692;2022-08-03T14:04:38;36.60;47.40
41926;DHT22;27615;51.826;5.692;2022-08-03T14:07:06;36.70;47.40
41926;DHT22;27615;51.826;5.692;2022-08-03T14:09:32;36.80;47.40
41926;DHT22;27615;51.826;5.692;2022-08-03T14:11:59;36.90;47.30
41926;DHT22;27615;51.826;5.692;2022-08-03T14:14:24;36.90;47.40
41926;DHT22;27615;51.826;5.692;2022-08-03T14:16:50;37.00;47.60
41926;DHT22;27615;51.826;5.692;2022-08-03T14:19:15;37.10;47.60
41926;DHT22;27615;51.826;5.692;2022-08-03T14:21:41;37.20;47.30
41926;DHT22;27615;51.826;5.692;2022-08-03T14:24:07;37.20;46.90
41926;DHT22;27615;51.826;5.692;2022-08-03T14:26:32;37.20;46.80
41926;DHT22;27615;51.826;5.692;2022-08-03T14:32:23;37.40;46.80
41926;DHT22;27615;51.826;5.692;2022-08-03T14:42:10;37.60;46.50
41926;DHT22;27615;51.826;5.692;2022-08-03T14:47:56;37.90;46.10
41926;DHT22;27615;51.826;5.692;2022-08-03T14:50:27;37.90;46.00
41926;DHT22;27615;51.826;5.692;2022-08-03T14:52:55;37.90;46.10
41926;DHT22;27615;51.826;5.692;2022-08-03T14:55:24;37.90;46.00
41926;DHT22;27615;51.826;5.692;2022-08-03T14:57:49;38.00;46.10
41926;DHT22;27615;51.826;5.692;2022-08-03T15:00:15;38.00;45.90
41926;DHT22;27615;51.826;5.692;2022-08-03T15:02:51;38.10;45.80
41926;DHT22;27615;51.826;5.692;2022-08-03T15:05:19;38.20;45.90
41926;DHT22;27615;51.826;5.692;2022-08-03T15:07:45;38.20;45.70
41926;DHT22;27615;51.826;5.692;2022-08-03T15:10:10;38.20;45.20
41926;DHT22;27615;51.826;5.692;2022-08-03T15:12:36;38.30;45.40
41926;DHT22;27615;51.826;5.692;2022-08-03T15:15:22;38.30;45.30
41926;DHT22;27615;51.826;5.692;2022-08-03T15:17:47;38.40;45.30
41926;DHT22;27615;51.826;5.692;2022-08-03T15:20:13;38.50;46.00
41926;DHT22;27615;51.826;5.692;2022-08-03T15:22:39;38.60;45.40
41926;DHT22;27615;51.826;5.692;2022-08-03T15:25:05;38.60;45.00
41926;DHT22;27615;51.826;5.692;2022-08-03T15:27:31;38.70;44.50
41926;DHT22;27615;51.826;5.692;2022-08-03T15:32:59;38.60;44.40
41926;DHT22;27615;51.826;5.692;2022-08-03T15:35:24;38.60;44.30
41926;DHT22;27615;51.826;5.692;2022-08-03T15:37:50;38.60;44.40
41926;DHT22;27615;51.826;5.692;2022-08-03T15:40:15;38.60;44.50
41926;DHT22;27615;51.826;5.692;2022-08-03T15:42:41;38.50;44.60
41926;DHT22;27615;51.826;5.692;2022-08-03T15:45:07;38.60;44.70
41926;DHT22;27615;51.826;5.692;2022-08-03T15:47:32;38.60;44.80
41926;DHT22;27615;51.826;5.692;2022-08-03T15:49:58;38.70;45.00
41926;DHT22;27615;51.826;5.692;2022-08-03T15:52:23;38.80;45.00
41926;DHT22;27615;51.826;5.692;2022-08-03T15:54:49;38.80;44.80
41926;DHT22;27615;51.826;5.692;2022-08-03T15:57:14;38.80;44.50
41926;DHT22;27615;51.826;5.692;2022-08-03T15:59:40;38.80;44.40
41926;DHT22;27615;51.826;5.692;2022-08-03T16:02:05;38.80;44.30
41926;DHT22;27615;51.826;5.692;2022-08-03T16:04:31;38.80;44.30
41926;DHT22;27615;51.826;5.692;2022-08-03T16:06:57;38.90;44.40
41926;DHT22;27615;51.826;5.692;2022-08-03T16:09:23;38.80;44.40
41926;DHT22;27615;51.826;5.692;2022-08-03T16:11:48;38.90;44.50
41926;DHT22;27615;51.826;5.692;2022-08-03T16:14:14;38.90;44.60
41926;DHT22;27615;51.826;5.692;2022-08-03T16:16:39;38.90;44.60
41926;DHT22;27615;51.826;5.692;2022-08-03T16:19:05;38.90;44.60
41926;DHT22;27615;51.826;5.692;2022-08-03T16:21:31;38.80;44.40
41926;DHT22;27615;51.826;5.692;2022-08-03T16:23:57;38.80;44.40
41926;DHT22;27615;51.826;5.692;2022-08-03T16:26:24;38.80;44.40
41926;DHT22;27615;51.826;5.692;2022-08-03T16:28:50;38.80;44.50
41926;DHT22;27615;51.826;5.692;2022-08-03T16:31:15;38.90;44.40
41926;DHT22;27615;51.826;5.692;2022-08-03T16:33:41;38.90;44.30
41926;DHT22;27615;51.826;5.692;2022-08-03T16:36:06;38.80;44.20
41926;DHT22;27615;51.826;5.692;2022-08-03T16:38:32;38.90;44.40
41926;DHT22;27615;51.826;5.692;2022-08-03T16:40:57;38.80;44.10
41926;DHT22;27615;51.826;5.692;2022-08-03T16:43:23;38.80;44.30
41926;DHT22;27615;51.826;5.692;2022-08-03T16:45:49;38.80;44.20